createdAt,value
2019-04-28T00:02:31.833Z,99481.59
2019-04-28T00:07:36.351Z,99483.03
2019-04-28T00:12:41.309Z,99480.27
2019-04-28T00:17:45.957Z,99468.28
2019-04-28T00:22:55.110Z,99481.79
2019-04-28T00:27:59.528Z,99478.76
2019-04-28T00:33:05.147Z,99476.59
2019-04-28T00:38:11.327Z,99472.20
2019-04-28T00:43:16.826Z,99482.74
2019-04-28T00:48:21.833Z,99480.34
2019-04-28T00:53:26.252Z,99488.72
2019-04-28T00:58:31.892Z,99480.77
2019-04-28T01:03:37.364Z,99478.91
2019-04-28T01:08:42.042Z,99488.06
2019-04-28T01:13:46.739Z,99476.67
2019-04-28T01:19:04.451Z,99471.92
2019-04-28T01:24:09.512Z,99479.91
2019-04-28T01:29:14.322Z,99488.27
2019-04-28T01:34:22.859Z,99488.00
2019-04-28T01:39:27.390Z,99487.13
2019-04-28T01:44:31.859Z,99488.45
2019-04-28T01:49:36.387Z,99487.71
2019-04-28T01:54:40.878Z,99491.32
2019-04-28T01:59:45.453Z,99494.81
2019-04-28T02:04:50.032Z,99500.53
2019-04-28T02:09:55.507Z,99491.32
2019-04-28T02:15:01.028Z,99491.32
2019-04-28T02:20:10.421Z,99502.25
2019-04-28T02:25:15.966Z,99513.41
2019-04-28T02:30:26.553Z,99513.11
2019-04-28T02:35:26.810Z,99514.38
2019-04-28T02:40:31.342Z,99505.32
2019-04-28T02:45:41.197Z,99507.86
2019-04-28T02:50:52.444Z,99504.37
2019-04-28T02:56:01.138Z,99506.48
2019-04-28T03:01:15.217Z,99506.42
2019-04-28T03:06:11.959Z,99501.16
2019-04-28T03:11:16.537Z,99500.12
2019-04-28T03:16:23.175Z,99507.75
2019-04-28T03:21:27.270Z,99517.05
2019-04-28T03:26:43.383Z,99521.99
2019-04-28T03:32:22.751Z,99526.78
2019-04-28T03:37:11.276Z,99535.69
2019-04-28T03:42:16.519Z,99544.03
2019-04-28T03:47:21.638Z,99548.20
2019-04-28T03:52:26.132Z,99546.84
2019-04-28T03:57:31.378Z,99541.02
2019-04-28T04:02:36.028Z,99550.25
2019-04-28T04:07:43.133Z,99558.59
2019-04-28T04:12:50.668Z,99556.89
2019-04-28T04:18:02.150Z,99566.75
2019-04-28T04:23:06.593Z,99568.89
2019-04-28T04:28:12.716Z,99584.29
2019-04-28T04:33:17.212Z,99591.94
2019-04-28T04:38:21.957Z,99594.97
2019-04-28T04:43:26.466Z,99612.52
2019-04-28T04:48:31.270Z,99605.39
2019-04-28T04:53:37.749Z,99613.41
2019-04-28T04:58:42.209Z,99633.00
2019-04-28T05:03:54.412Z,99623.17
2019-04-28T05:09:00.933Z,99637.39
2019-04-28T05:14:09.651Z,99635.81
2019-04-28T05:19:13.819Z,99640.17
2019-04-28T05:24:36.320Z,99662.56
2019-04-28T05:29:40.790Z,99662.44
2019-04-28T05:34:46.556Z,99668.64
2019-04-28T05:39:52.501Z,99678.14
2019-04-28T05:44:57.157Z,99680.45
2019-04-28T05:50:12.306Z,99679.23
2019-04-28T05:55:24.754Z,99683.58
2019-04-28T06:00:41.715Z,99693.48
2019-04-28T06:05:45.747Z,99695.53
2019-04-28T06:10:50.174Z,99705.52
2019-04-28T06:15:54.667Z,99705.52
2019-04-28T06:20:59.245Z,99717.93
2019-04-28T06:26:03.806Z,99714.89
2019-04-28T06:31:08.405Z,99732.38
2019-04-28T06:36:12.905Z,99719.37
2019-04-28T06:41:17.327Z,99722.16
2019-04-28T06:46:21.926Z,99720.04
2019-04-28T06:51:26.459Z,99713.56
2019-04-28T06:56:30.880Z,99742.58
2019-04-28T07:01:35.504Z,99736.23
2019-04-28T07:06:39.999Z,99765.16
2019-04-28T07:11:44.433Z,99749.26
2019-04-28T07:16:48.882Z,99754.59
2019-04-28T07:22:00.880Z,99748.11
2019-04-28T07:27:06.317Z,99743.88
2019-04-28T07:32:11.176Z,99759.17
2019-04-28T07:37:15.926Z,99763.81
2019-04-28T07:42:20.691Z,99743.92
2019-04-28T07:47:25.219Z,99751.09
2019-04-28T07:52:31.311Z,99751.44
2019-04-28T07:57:35.972Z,99747.38
2019-04-28T08:02:40.440Z,99748.08
2019-04-28T08:07:45.202Z,99754.55
2019-04-28T08:12:49.772Z,99757.74
2019-04-28T08:17:54.543Z,99761.92
2019-04-28T08:23:00.099Z,99765.52
2019-04-28T08:28:04.888Z,99765.69
2019-04-28T08:33:17.239Z,99758.04
2019-04-28T08:38:21.735Z,99767.52
2019-04-28T08:43:26.369Z,99780.55
2019-04-28T08:48:30.892Z,99780.92
2019-04-28T08:53:35.315Z,99779.91
2019-04-28T08:58:39.791Z,99776.52
2019-04-28T09:03:45.341Z,99786.17
2019-04-28T09:08:49.874Z,99789.87
2019-04-28T09:13:54.531Z,99789.87
2019-04-28T09:18:59.123Z,99794.70
2019-04-28T09:24:03.723Z,99805.76
2019-04-28T09:29:08.235Z,99793.26
2019-04-28T09:34:12.811Z,99782.70
2019-04-28T09:39:18.986Z,99802.45
2019-04-28T09:44:23.442Z,99785.34
2019-04-28T09:49:28.034Z,99779.77
2019-04-28T09:54:32.524Z,99794.45
2019-04-28T09:59:37.049Z,99796.98
2019-04-28T10:04:42.305Z,99799.39
2019-04-28T10:09:47.849Z,99803.75
2019-04-28T10:14:52.409Z,99793.33
2019-04-28T10:19:56.937Z,99789.20
2019-04-28T10:25:01.539Z,99784.76
2019-04-28T10:30:09.547Z,99798.81
2019-04-28T10:35:14.315Z,99791.98
2019-04-28T10:40:23.584Z,99798.35
2019-04-28T10:45:29.694Z,99800.91
2019-04-28T10:50:34.199Z,99801.01
2019-04-28T10:55:38.651Z,99796.48
2019-04-28T11:00:43.352Z,99793.34
2019-04-28T11:05:47.940Z,99791.43
2019-04-28T11:10:53.134Z,99790.13
2019-04-28T11:15:57.805Z,99797.91
2019-04-28T11:21:02.367Z,99788.98
2019-04-28T11:26:06.881Z,99796.11
2019-04-28T11:31:11.494Z,99795.35
2019-04-28T11:36:17.647Z,99794.31
2019-04-28T11:41:22.151Z,99788.80
2019-04-28T11:46:27.947Z,99786.11
2019-04-28T11:51:32.646Z,99793.63
2019-04-28T11:56:41.647Z,99797.63
2019-04-28T12:01:43.580Z,99795.64
2019-04-28T12:06:48.241Z,99794.67
2019-04-28T12:12:00.851Z,99795.25
2019-04-28T12:17:23.629Z,99805.53
2019-04-28T12:22:28.467Z,99790.78
2019-04-28T12:27:32.954Z,99797.08
2019-04-28T12:32:40.406Z,99805.52
2019-04-28T12:37:44.900Z,99799.78
2019-04-28T12:42:49.366Z,99798.25
2019-04-28T12:47:54.000Z,99801.88
2019-04-28T12:52:59.731Z,99800.72
2019-04-28T12:58:05.034Z,99784.38
2019-04-28T13:03:26.512Z,99788.53
2019-04-28T13:08:33.560Z,99797.24
2019-04-28T13:13:39.847Z,99797.21
2019-04-28T13:18:44.400Z,99780.94
2019-04-28T13:23:49.149Z,99786.25
2019-04-28T13:28:53.692Z,99789.91
2019-04-28T13:34:00.135Z,99780.49
2019-04-28T13:39:09.534Z,99810.24
2019-04-28T13:44:16.052Z,99780.86
2019-04-28T13:49:23.323Z,99784.36
2019-04-28T13:54:29.106Z,99779.77
2019-04-28T13:59:34.027Z,99785.63
2019-04-28T14:04:42.116Z,99781.95
2019-04-28T14:09:46.620Z,99797.86
2019-04-28T14:14:53.960Z,99795.10
2019-04-28T14:19:58.509Z,99793.69
2019-04-28T14:25:04.938Z,99800.42
2019-04-28T14:30:09.824Z,99802.80
2019-04-28T14:35:14.837Z,99808.46
2019-04-28T14:40:19.447Z,99810.86
2019-04-28T14:45:24.893Z,99811.64
2019-04-28T14:50:29.341Z,99816.55
2019-04-28T14:55:34.028Z,99815.15
2019-04-28T15:00:40.445Z,99817.08
2019-04-28T15:05:46.727Z,99818.47
2019-04-28T15:11:05.326Z,99821.66
2019-04-28T15:16:09.870Z,99819.94
2019-04-28T15:21:14.698Z,99829.88
2019-04-28T15:26:19.320Z,99830.52
2019-04-28T15:31:23.985Z,99826.91
2019-04-28T15:36:28.723Z,99833.98
2019-04-28T15:41:33.164Z,99835.09
2019-04-28T15:46:37.678Z,99832.45
2019-04-28T15:51:42.376Z,99835.31
2019-04-28T15:56:47.674Z,99834.38
2019-04-28T16:01:52.272Z,99828.88
2019-04-28T16:06:58.380Z,99829.80
2019-04-28T16:12:03.115Z,99830.47
2019-04-28T16:17:07.714Z,99829.20
2019-04-28T16:22:12.597Z,99825.52
2019-04-28T16:27:17.034Z,99838.72
2019-04-28T16:32:21.611Z,99830.99
2019-04-28T16:37:38.550Z,99835.76
2019-04-28T16:42:36.093Z,99837.68
2019-04-28T16:47:40.795Z,99831.77
2019-04-28T16:52:45.402Z,99836.80
2019-04-28T16:58:00.301Z,99839.23
2019-04-28T17:03:05.127Z,99837.29
2019-04-28T17:08:09.732Z,99838.48
2019-04-28T17:13:15.544Z,99836.66
2019-04-28T17:18:21.260Z,99838.50
2019-04-28T17:23:25.988Z,99841.67
2019-04-28T17:28:30.665Z,99838.97
2019-04-28T17:33:35.300Z,99844.44
2019-04-28T17:38:40.054Z,99839.75
2019-04-28T17:43:44.779Z,99840.50
2019-04-28T17:48:56.945Z,99852.61
2019-04-28T17:54:03.588Z,99854.58
2019-04-28T17:59:08.329Z,99851.36
2019-04-28T18:04:23.750Z,99861.58
2019-04-28T18:09:29.678Z,99860.11
2019-04-28T18:14:34.837Z,99870.33
2019-04-28T18:19:39.371Z,99869.63
2019-04-28T18:24:44.848Z,99875.89
2019-04-28T18:29:49.395Z,99877.27
2019-04-28T18:35:07.580Z,99879.57
2019-04-28T18:40:17.223Z,99876.99
2019-04-28T18:45:21.932Z,99877.05
2019-04-28T18:50:26.556Z,99881.93
2019-04-28T18:55:31.065Z,99894.20
2019-04-28T19:00:37.342Z,99894.15
2019-04-28T19:05:43.585Z,99893.75
2019-04-28T19:10:50.851Z,99896.91
2019-04-28T19:16:07.330Z,99888.59
2019-04-28T19:21:11.919Z,99894.84
2019-04-28T19:26:16.619Z,99887.39
2019-04-28T19:31:22.215Z,99881.86
2019-04-28T19:36:26.810Z,99878.42
2019-04-28T19:41:31.237Z,99874.00
2019-04-28T19:46:35.823Z,99871.83
2019-04-28T19:51:40.363Z,99868.67
2019-04-28T19:56:46.639Z,99871.70
2019-04-28T20:01:52.412Z,99870.50
2019-04-28T20:06:57.028Z,99874.41
2019-04-28T20:12:01.495Z,99876.59
2019-04-28T20:17:06.121Z,99863.45
2019-04-28T20:22:10.791Z,99857.84
2019-04-28T20:27:15.408Z,99860.53
2019-04-28T20:32:19.845Z,99868.51
2019-04-28T20:37:28.338Z,99861.17
2019-04-28T20:42:47.382Z,99868.62
2019-04-28T20:47:51.967Z,99848.90
2019-04-28T20:52:56.625Z,99837.48
2019-04-28T20:58:02.607Z,99851.53
2019-04-28T21:03:08.153Z,99852.80
2019-04-28T21:08:12.818Z,99858.07
2019-04-28T21:13:17.355Z,99845.34
2019-04-28T21:18:21.802Z,99839.76
2019-04-28T21:23:27.450Z,99842.86
2019-04-28T21:28:31.916Z,99863.63
2019-04-28T21:33:36.421Z,99844.02
2019-04-28T21:38:40.913Z,99846.70
2019-04-28T21:43:52.817Z,99850.67
2019-04-28T21:48:59.134Z,99842.75
2019-04-28T21:54:03.571Z,99834.37
2019-04-28T21:59:08.061Z,99847.63
2019-04-28T22:04:12.627Z,99817.75
2019-04-28T22:09:18.892Z,99811.63
2019-04-28T22:14:23.516Z,99809.96
2019-04-28T22:19:28.129Z,99807.78
2019-04-28T22:24:40.160Z,99797.84
2019-04-28T22:29:44.577Z,99801.98
2019-04-28T22:34:49.032Z,99802.08
2019-04-28T22:39:53.453Z,99802.89
2019-04-28T22:44:57.954Z,99803.61
2019-04-28T22:50:02.633Z,99796.73
2019-04-28T22:55:12.615Z,99792.04
2019-04-28T23:00:36.803Z,99789.98
2019-04-28T23:05:42.049Z,99776.91
2019-04-28T23:10:47.619Z,99771.28
2019-04-28T23:15:52.252Z,99780.50
2019-04-28T23:21:05.001Z,99771.28
2019-04-28T23:26:09.615Z,99756.30
2019-04-28T23:31:14.173Z,99749.64
2019-04-28T23:36:18.700Z,99751.77
2019-04-28T23:41:30.887Z,99754.74
2019-04-28T23:46:53.418Z,99742.30
2019-04-28T23:52:15.659Z,99737.84
2019-04-28T23:57:20.340Z,99733.42
